Tiempo atmosférico en la estación meteorológica de Biescas, Huesca (1100 m.)



Fecha
DESCASC
Temp. máxima en grados centígrados (hora)
DESCASC
Temp. mínima en grados centígrados (hora)
DESCASC
Temp. media en grados centígrados
DESCASC
Racha de viento máxima en m/sg (hora)
DESCASC
Velocidad máxima media en intervalos de 10 minutos(hora)
DESCASC
Precipitaciones diarias en mm
DESCASC
Precipitaciones de 00:00 a 06:00 en mm
DESCASC
Precipitaciones de 06:00 a 12:00 en mm
DESCASC
Precipitaciones de 12:00 a 18:00 en mm
DESCASC
Precipitaciones de 18:00 a 24:00 en mm
DESCASC
10-07-2020 25.5 (13:50) 13.4 (04:30) 19.4 6.67 (15:40) 2.5 (15:40) 11.4 0 0 11.4 0
09-07-2020 27.3 (14:20) 14 (06:00) 20.6 6.67 (14:20) 3.33 (13:00) 2.8 0 0 2.8 0
08-07-2020 28.3 (17:10) 10.5 (06:20) 19.4 6.39 (13:40) 2.5 (17:10) 0 0 0 0 0
07-07-2020 25.9 (15:50) 8.2 (07:20) 17 6.11 (11:50) 2.5 (12:40) 0 0 0 0 0
06-07-2020 26 (15:30) 11.9 (00:00) 18.9 5 (15:50) 1.67 (15:50) 0 0 0 0 0
05-07-2020 27.6 (17:10) 10 (00:00) 18.8 6.67 (14:40) 2.5 (16:00) 0 0 0 0 0
04-07-2020 25.5 (16:50) 5.8 (00:00) 15.7 6.67 (15:10) 1.94 (14:20) 0 0 0 0 0
03-07-2020 22.7 (17:30) 9.4 (07:20) 16.1 3.61 (17:50) 1.39 (10:10) 0 0 0 0 0
02-07-2020 23.4 (14:40) 13.4 (00:00) 18.4 7.5 (14:20) 3.06 (16:30) 0 0 0 0 0
01-07-2020 26.6 (15:40) 13.5 (00:00) 20.1 7.78 (14:50) 2.5 (13:00) 0 0 0 0 0
30-06-2020 26.5 (14:00) 14.8 (00:00) 20.7 7.22 (22:20) 2.5 (20:50) 30.6 0 0 0 30.6
29-06-2020 24.9 (17:50) 14.8 (00:00) 19.8 8.61 (12:00) 3.61 (12:00) 0 0 0 0 0
28-06-2020 -- (--) -- (--) -- -- (--) -- (--) -- -- 0 0 0
27-06-2020 24.4 (17:00) 10 (00:00) 17.2 5.83 (12:40) 2.5 (12:40) 0.4 0.4 0 0 0
26-06-2020 -- (--) -- (--) -- -- (--) -- (--) -- 0.8 0 0.4 --
25-06-2020 27.2 (16:00) 10.8 (00:00) 19 10.83 (21:20) 3.33 (21:30) 18.6 0 0 0 18.6
24-06-2020 27.3 (13:40) 11.7 (00:00) 19.5 7.5 (15:30) 2.5 (13:40) -- -- -- 18 3.2
23-06-2020 -- (--) -- (--) -- -- (--) -- (--) -- -- -- -- --
22-06-2020 25.8 (17:00) 10.5 (00:00) 18.1 6.94 (16:00) 2.5 (17:20) -- -- -- -- --
21-06-2020 26.3 (15:50) 9.8 (00:00) 18 7.78 (17:40) 2.78 (17:30) -- -- -- -- --
20-06-2020 23.5 (17:50) 8.6 (00:00) 16.1 7.22 (13:50) 3.61 (16:00) -- -- -- -- --
19-06-2020 20.8 (17:10) 8.7 (00:00) 14.7 7.22 (15:50) 2.78 (15:50) -- -- -- -- --
18-06-2020 17 (15:30) 7.6 (00:00) 12.3 6.11 (16:00) 2.78 (15:30) 0.2 0 0 0.2 0
17-06-2020 17 (14:10) 5.7 (00:00) 11.3 7.78 (15:10) 3.33 (17:30) 0.4 0.2 0 0 0.2
16-06-2020 14.8 (14:30) 8.9 (00:00) 11.8 7.5 (13:40) 3.06 (13:40) 0.4 0 0.2 0.2 0
15-06-2020 19 (17:20) 8.5 (00:00) 13.8 8.33 (13:40) 3.06 (13:40) 0.8 0.2 0.2 0.2 0.2
14-06-2020 16.6 (14:40) 6.5 (00:00) 11.6 5.28 (14:50) 2.5 (14:50) 1.2 0.4 0.2 0.4 0.2
13-06-2020 15.7 (13:10) 7.1 (00:00) 11.4 5.56 (02:40) 1.67 (13:50) 3 0.8 0.6 1 0.6
12-06-2020 13.6 (15:50) 7.3 (00:00) 10.5 8.89 (04:10) 3.89 (04:10) 6 2.2 1.6 1.4 0.8

Gráficas

Temp. máximas Temp. mínimas Temp. medias Precipitaciones Rachas de viento máximas Velocidades máximas media en intervalos de 10 minutos

Datos horarios

Fecha y hora oficial Temperatura (ºC) Velocidad del viento (km/h) Dirección del viento Racha (km/h) Dirección de racha Precipitación (mm) Presión (hPa) Tendencia (hPa) Humedad (%)
2020-07-11 23:00:00 16.5 0 Calma 4 Oeste 0 -- -- 85
2020-07-11 22:00:00 17.8 0 Calma 2 Noroeste 0 -- -- 82
2020-07-11 21:00:00 19 0 Calma 4 Sudoeste 0 -- -- 81
2020-07-11 20:00:00 20.2 2 Oeste 4 Noroeste 0 -- -- 78
2020-07-11 19:00:00 22 2 Oeste 4 Oeste 0 -- -- 70
2020-07-11 18:00:00 23.8 0 Calma 6 Sudeste 0 -- -- 71
2020-07-11 17:00:00 22.9 0 Calma 4 Oeste 0 -- -- 74
2020-07-11 16:00:00 23.8 3 Sudoeste 13 Sudeste 0 -- -- 67
2020-07-11 15:00:00 24.2 4 Sudeste 16 Sudeste 0 -- -- 57
2020-07-11 14:00:00 24.1 5 Este 19 Sudeste 0 -- -- 57
2020-07-11 13:00:00 23.8 4 Norte 19 Este 0 -- -- 58
2020-07-11 12:00:00 21.5 6 Sudeste 20 Sudeste 0 -- -- 68
2020-07-11 11:00:00 20.9 2 Este 7 Sudeste 0 -- -- 79
2020-07-11 10:00:00 18.1 2 Este 6 Este 0 -- -- 87
2020-07-11 09:00:00 14.8 3 Sudeste 4 Este 0 -- -- 95
2020-07-11 08:00:00 12.6 0 Calma -- -- 0 -- -- 98
2020-07-11 07:00:00 11.9 0 Calma -- -- 0 -- -- 97
2020-07-11 06:00:00 12.1 0 Calma -- -- 0 -- -- 96
2020-07-11 05:00:00 12.3 0 Calma -- -- 0 -- -- 96
2020-07-11 04:00:00 12.6 0 Calma -- -- 0 -- -- 95
2020-07-11 03:00:00 13 0 Calma -- -- 0 -- -- 95
2020-07-11 02:00:00 13.4 0 Calma -- -- 0 -- -- 96
2020-07-11 01:00:00 13.7 0 Calma -- -- 0 -- -- 94
2020-07-11 00:00:00 14.3 0 Calma 3 Sudoeste 0 -- -- 93
2020-07-10 23:00:00 15.2 0 Calma 9 Sudoeste 0 -- -- 92
2020-07-10 22:00:00 16.5 0 Calma 4 Sur 0 -- -- 91
2020-07-10 21:00:00 17.8 0 Calma -- -- 0 -- -- 89
2020-07-10 20:00:00 18.2 0 Calma 2 Norte 0 -- -- 91
2020-07-10 19:00:00 18 0 Calma 3 Noroeste 0 -- -- 91
2020-07-10 18:00:00 17.7 0 Calma 4 Sudoeste 0 -- -- 91
2020-07-10 17:00:00 16.7 0 Calma 7 Noroeste 9.6 -- -- 89
2020-07-10 16:00:00 18.9 3 Sudoeste 24 Oeste 1.8 -- -- 82
2020-07-10 15:00:00 23.9 4 Sudoeste 12 Sur 0 -- -- 56
2020-07-10 14:00:00 25.4 4 Sudeste 13 Sudoeste 0 -- -- 50
2020-07-10 13:00:00 24.6 4 Este 12 Este 0 -- -- 54
2020-07-10 12:00:00 23.3 3 Este 9 Norte 0 -- -- 62
2020-07-10 11:00:00 20.4 0 Calma 6 Este 0 -- -- 77
2020-07-10 10:00:00 17 2 Este 5 Noroeste 0 -- -- 92
2020-07-10 09:00:00 16 0 Calma 5 Sudeste 0 -- -- 89
2020-07-10 08:00:00 14.2 0 Calma 4 Sudoeste 0 -- -- 96
2020-07-10 07:00:00 13.5 0 Calma 5 Oeste 0 -- -- 95
2020-07-10 06:00:00 13.5 0 Calma -- -- 0 -- -- 95
2020-07-10 05:00:00 13.4 0 Calma -- -- 0 -- -- 95
2020-07-10 04:00:00 13.6 0 Calma 3 Oeste 0 -- -- 94
2020-07-10 03:00:00 14 0 Calma 3 Este 0 -- -- 93
2020-07-10 02:00:00 14.3 0 Calma 3 Este 0 -- -- 94
2020-07-10 01:00:00 14.2 0 Calma 4 Sur 0 -- -- 93
2020-07-10 00:00:00 14.9 0 Calma 4 Sur 0 -- -- 91
2020-07-09 23:00:00 15.7 2 Sudoeste 5 Oeste 0 -- -- 91
2020-07-09 22:00:00 16.9 0 Calma -- -- 0 -- -- 89
2020-07-09 21:00:00 17.9 0 Calma 3 Oeste 0 -- -- 87
2020-07-09 20:00:00 18 0 Calma 3 Oeste 0 -- -- 88
2020-07-09 19:00:00 17.9 2 Oeste 5 Sudoeste 0 -- -- 87
2020-07-09 18:00:00 17.4 2 Oeste 10 Oeste 0 -- -- 88
2020-07-09 17:00:00 18.2 3 Oeste 24 Sudoeste 2.8 -- -- 83
2020-07-09 16:00:00 23.8 0 Calma 16 Sur 0 -- -- 68
2020-07-09 15:00:00 26.8 3 Norte 24 Sudeste 0 -- -- 41
2020-07-09 14:00:00 26.5 3 Noroeste 23 Sur 0 -- -- 48
2020-07-09 13:00:00 26.5 12 Sur 24 Sudeste 0 -- -- 42
2020-07-09 12:00:00 24.6 3 Nordeste 7 Sudeste 0 -- -- 52
2020-07-09 11:00:00 21.2 0 Calma 4 Sudeste 0 -- -- 71
2020-07-09 10:00:00 19.2 0 Calma 4 Este 0 -- -- 72
2020-07-09 09:00:00 17.4 0 Calma 6 Sudeste 0 -- -- 81
2020-07-09 08:00:00 15.8 0 Calma 10 Sudeste 0 -- -- 82
2020-07-09 07:00:00 14.1 2 Noroeste 6 Norte 0 -- -- 86
2020-07-09 06:00:00 14 0 Calma 4 Sudeste 0 -- -- 84
2020-07-09 05:00:00 14.5 0 Calma 4 Sudeste 0 -- -- 84
2020-07-09 04:00:00 14.8 0 Calma 6 Noroeste 0 -- -- 81
2020-07-09 03:00:00 15.5 0 Calma 3 Oeste 0 -- -- 79
2020-07-09 02:00:00 16.3 0 Calma 4 Sudoeste 0 -- -- 77
2020-07-09 01:00:00 17.5 0 Calma 3 Oeste 0 -- -- 73
2020-07-09 00:00:00 18.9 0 Calma 3 Sudeste 0 -- -- 67
2020-07-08 23:00:00 21.8 2 Noroeste 18 Oeste 0 -- -- 57
2020-07-08 22:00:00 23 4 Noroeste 20 Sudeste 0 -- -- 50
2020-07-08 21:00:00 24.7 8 Sur 21 Oeste 0 -- -- 48
2020-07-08 20:00:00 24.9 3 Oeste 13 Sur 0 -- -- 47
2020-07-08 19:00:00 26.9 5 Oeste 17 Sudoeste 0 -- -- 36
2020-07-08 18:00:00 27.7 5 Sudoeste 17 Sudoeste 0 -- -- 35
2020-07-08 17:00:00 28.2 4 Sur 13 Sur 0 -- -- 38
2020-07-08 16:00:00 27.8 2 Oeste 10 Sur 0 -- -- 53
2020-07-08 15:00:00 26.9 6 Sur 15 Sur 0 -- -- 35
2020-07-08 14:00:00 25.8 5 Este 23 Este 0 -- -- 34
2020-07-08 13:00:00 25.3 0 Calma 0 Calma 0 -- -- 50
2020-07-08 12:00:00 23 0 Calma 0 Calma 0 -- -- 54
2020-07-08 11:00:00 20.9 0 Calma 0 Calma 0 -- -- 62
2020-07-08 10:00:00 18.1 0 Calma 0 Calma 0 -- -- 57
2020-07-08 09:00:00 14.4 0 Calma 0 Calma 0 -- -- 77
2020-07-08 08:00:00 11.4 0 Calma 0 Calma 0 -- -- 86
2020-07-08 07:00:00 10.5 0 Calma 0 Calma 0 -- -- 84
2020-07-08 06:00:00 10.6 0 Calma 0 Calma 0 -- -- 82
2020-07-08 05:00:00 11.1 0 Calma 0 Calma 0 -- -- 83
2020-07-08 04:00:00 11.7 0 Calma 0 Calma 0 -- -- 83
2020-07-08 03:00:00 12.3 0 Calma 0 Calma 0 -- -- 82
2020-07-08 02:00:00 13.2 0 Calma 0 Calma 0 -- -- 80
2020-07-08 01:00:00 14.2 0 Calma 0 Calma 0 -- -- 77
2020-07-08 00:00:00 15.2 0 Calma 2 Noroeste 0 -- -- 75
2020-07-07 23:00:00 16.7 0 Calma 3 Sudoeste 0 -- -- 69
2020-07-07 22:00:00 18.7 0 Calma 6 Norte 0 -- -- 62
2020-07-07 21:00:00 21.6 3 Norte 17 Oeste 0 -- -- 48
2020-07-07 20:00:00 22.6 3 Oeste 14 Oeste 0 -- -- 44
2020-07-07 19:00:00 24 3 Noroeste 22 Oeste 0 -- -- 46
2020-07-07 18:00:00 25.5 3 Noroeste 15 Sudoeste 0 -- -- 45
2020-07-07 17:00:00 25.3 4 Norte 17 Sudoeste 0 -- -- 45
2020-07-07 16:00:00 25.9 5 Sur 18 Sudeste 0 -- -- 46
2020-07-07 15:00:00 25 4 Este 21 Sur 0 -- -- 49
2020-07-07 14:00:00 24 5 Sur 19 Oeste 0 -- -- 48
2020-07-07 13:00:00 22.9 4 Sur 20 Sur 0 -- -- 52
2020-07-07 12:00:00 21.2 7 Sur 22 Sur 0 -- -- 50
2020-07-07 11:00:00 19.4 3 Este 9 Sur 0 -- -- 56
2020-07-07 10:00:00 16.6 3 Este 9 Sudeste 0 -- -- 62
2020-07-07 09:00:00 12.5 3 Sudeste 5 Este 0 -- -- 69
2020-07-07 08:00:00 9.3 0 Calma 5 Norte 0 -- -- 80
2020-07-07 07:00:00 8.3 2 Oeste 4 Sudoeste 0 -- -- 69
2020-07-07 06:00:00 8.8 2 Oeste 4 Sudoeste 0 -- -- 72
2020-07-07 05:00:00 9.3 0 Calma 4 Sudoeste 0 -- -- 72
2020-07-07 04:00:00 10.1 2 Noroeste 7 Noroeste 0 -- -- 70
2020-07-07 03:00:00 10.5 0 Calma 6 Nordeste 0 -- -- 73
2020-07-07 02:00:00 11.3 0 Calma 5 Sudoeste 0 -- -- 74
2020-07-07 01:00:00 12.3 2 Oeste 6 Sudoeste 0 -- -- 73
2020-07-07 00:00:00 13.5 3 Oeste 9 Sudoeste 0 -- -- 68
2020-07-06 23:00:00 14.5 0 Calma 8 Sudoeste 0 -- -- 72
2020-07-06 22:00:00 16.3 0 Calma 8 Sudeste 0 -- -- 66
2020-07-06 21:00:00 18.3 3 Sudeste 8 Sur 0 -- -- 63
2020-07-06 20:00:00 19.9 0 Calma 6 Oeste 0 -- -- 62
2020-07-06 19:00:00 22.2 2 Sudeste 9 Noroeste 0 -- -- 59
2020-07-06 18:00:00 23.3 3 Sudeste 10 Nordeste 0 -- -- 59
2020-07-06 17:00:00 24.5 3 Sudeste 8 Sudeste 0 -- -- 52
2020-07-06 16:00:00 25.9 4 Sudeste 18 Norte 0 -- -- 47
2020-07-06 15:00:00 25.3 4 Sudeste 8 Sur 0 -- -- 55
2020-07-06 14:00:00 25.5 5 Sudeste 15 Nordeste 0 -- -- 54
2020-07-06 13:00:00 24.8 4 Sudeste 13 Sudeste 0 -- -- 54
2020-07-06 12:00:00 23.9 4 Sudeste 11 Sur 0 -- -- 58
2020-07-06 11:00:00 22.2 3 Sudeste 8 Sur 0 -- -- 62
2020-07-06 10:00:00 20.6 3 Sudeste 6 Sudeste 0 -- -- 62
2020-07-06 09:00:00 16.4 0 Calma 5 Este 0 -- -- 71
2020-07-06 08:00:00 13.1 0 Calma 4 Nordeste 0 -- -- 85
2020-07-06 07:00:00 11.9 0 Calma -- -- 0 -- -- 84
2020-07-06 06:00:00 12.3 0 Calma -- -- 0 -- -- 85
2020-07-06 05:00:00 12.8 0 Calma -- -- 0 -- -- 86
2020-07-06 04:00:00 13.5 0 Calma 3 Sudoeste 0 -- -- 87
2020-07-06 03:00:00 14 0 Calma 4 Sudoeste 0 -- -- 87
2020-07-06 02:00:00 14.7 0 Calma 5 Sur 0 -- -- 85
2020-07-06 01:00:00 15.5 0 Calma 2 Oeste 0 -- -- 84
2020-07-06 00:00:00 16.4 0 Calma 3 Oeste 0 -- -- 81
2020-07-05 23:00:00 17.5 0 Calma 5 Oeste 0 -- -- 78
2020-07-05 22:00:00 19 0 Calma 8 Sudoeste 0 -- -- 74
2020-07-05 21:00:00 20.8 0 Calma 4 Sudoeste 0 -- -- 69
2020-07-05 20:00:00 22.7 2 Sudoeste 9 Sur 0 -- -- 64
2020-07-05 19:00:00 25.5 3 Sudoeste 15 Sudeste 0 -- -- 48
2020-07-05 18:00:00 27.3 8 Sur 18 Sur 0 -- -- 43
2020-07-05 17:00:00 27.5 6 Sudeste 18 Sur 0 -- -- 40
2020-07-05 16:00:00 27 9 Sudeste 21 Sudeste 0 -- -- 42
2020-07-05 15:00:00 26.5 8 Sudeste 24 Sudeste 0 -- -- 41
2020-07-05 14:00:00 26.3 5 Sudeste 16 Oeste 0 -- -- 38
2020-07-05 13:00:00 25.4 3 Oeste 21 Sur 0 -- -- 44
2020-07-05 12:00:00 23.4 5 Sudeste 17 Sur 0 -- -- 38
2020-07-05 11:00:00 21.9 2 Nordeste 6 Sur 0 -- -- 58
2020-07-05 10:00:00 18.9 0 Calma 4 Sudeste 0 -- -- 63
2020-07-05 09:00:00 14.6 2 Sudeste 4 Nordeste 0 -- -- 72
2020-07-05 08:00:00 11.5 0 Calma -- -- 0 -- -- 82
2020-07-05 07:00:00 10.1 0 Calma 3 Oeste 0 -- -- 80
2020-07-05 06:00:00 10.1 0 Calma 3 Oeste 0 -- -- 76
2020-07-05 05:00:00 10.4 0 Calma 3 Sudoeste 0 -- -- 77
2020-07-05 04:00:00 10.8 0 Calma 3 Oeste 0 -- -- 76
2020-07-05 03:00:00 11.3 0 Calma -- -- 0 -- -- 73
2020-07-05 02:00:00 11.9 0 Calma 3 Oeste 0 -- -- 72
2020-07-05 01:00:00 12.6 0 Calma 4 Sur 0 -- -- 73
2020-07-05 00:00:00 13.5 0 Calma 4 Nordeste 0 -- -- 72
2020-07-04 23:00:00 14.6 0 Calma 5 Sudoeste 0 -- -- 71
2020-07-04 22:00:00 16 0 Calma 4 Sudoeste 0 -- -- 66
2020-07-04 21:00:00 17.8 0 Calma 4 Oeste 0 -- -- 58
2020-07-04 20:00:00 19.5 0 Calma 9 Sudeste 0 -- -- 58
2020-07-04 19:00:00 22.9 5 Sudoeste 11 Sudeste 0 -- -- 52
2020-07-04 18:00:00 25.2 3 Sudoeste 18 Sur 0 -- -- 44
2020-07-04 17:00:00 25.5 4 Sudeste 22 Oeste 0 -- -- 39
2020-07-04 16:00:00 25 5 Sudeste 24 Sudeste 0 -- -- 41
2020-07-04 15:00:00 23.9 6 Sudeste 21 Sur 0 -- -- 46
2020-07-04 14:00:00 23.2 6 Sudeste 23 Sur 0 -- -- 42
2020-07-04 13:00:00 22.6 4 Sudeste 19 Oeste 0 -- -- 50
2020-07-04 12:00:00 21 5 Sudeste 14 Sudeste 0 -- -- 46
2020-07-04 11:00:00 18.4 2 Sudeste 6 Sur 0 -- -- 51
2020-07-04 10:00:00 14.7 3 Sudeste 6 Este 0 -- -- 47
2020-07-04 09:00:00 10.9 3 Sudeste 5 Este 0 -- -- 72
2020-07-04 08:00:00 6.7 0 Calma 3 Sudoeste 0 -- -- 84
2020-07-04 07:00:00 5.8 0 Calma 3 Sudoeste 0 -- -- 77
2020-07-04 06:00:00 6.2 0 Calma 3 Sudoeste 0 -- -- 80
2020-07-04 05:00:00 6.6 0 Calma 3 Noroeste 0 -- -- 78
2020-07-04 04:00:00 7.4 0 Calma 5 Sudoeste 0 -- -- 80
2020-07-04 03:00:00 8 2 Sudoeste 5 Sudoeste 0 -- -- 82
2020-07-04 02:00:00 8.7 0 Calma 6 Norte 0 -- -- 82
2020-07-04 01:00:00 9.4 0 Calma 4 Sudoeste 0 -- -- 83
2020-07-04 00:00:00 10.4 0 Calma 4 Oeste 0 -- -- 80
2020-07-03 23:00:00 11.5 2 Sudoeste 10 Sudoeste 0 -- -- 79
2020-07-03 22:00:00 12.9 2 Noroeste 6 Oeste 0 -- -- 77
2020-07-03 21:00:00 14.9 2 Sudoeste 9 Norte 0 -- -- 72
2020-07-03 20:00:00 17 0 Calma 6 Sur 0 -- -- 67
2020-07-03 19:00:00 19.7 3 Sudoeste 9 Nordeste 0 -- -- 59
2020-07-03 18:00:00 22 4 Sur 13 Nordeste 0 -- -- 49
2020-07-03 17:00:00 22.5 3 Sudeste 7 Norte 0 -- -- 51
2020-07-03 16:00:00 22.3 3 Este 7 Nordeste 0 -- -- 49
2020-07-03 15:00:00 21.4 3 Este 9 Sudeste 0 -- -- 48
2020-07-03 14:00:00 20.6 4 Este 11 Este 0 -- -- 55
2020-07-03 13:00:00 20.1 4 Sudeste 8 Sudeste 0 -- -- 55
2020-07-03 12:00:00 19.1 3 Este 9 Sur 0 -- -- 54
2020-07-03 11:00:00 17.8 5 Sudeste 11 Sudeste 0 -- -- 61
2020-07-03 10:00:00 16.5 5 Sudeste 10 Sudeste 0 -- -- 65
2020-07-03 09:00:00 14.4 4 Este 9 Este 0 -- -- 72
2020-07-03 08:00:00 10.2 3 Sur 5 Sudeste 0 -- -- 83
2020-07-03 07:00:00 9.6 0 Calma 6 Sudeste 0 -- -- 84
2020-07-03 06:00:00 10.7 2 Oeste 5 Oeste 0 -- -- 80
2020-07-03 05:00:00 11.2 0 Calma 12 Norte 0 -- -- 77
2020-07-03 04:00:00 11.3 3 Sudeste 11 Este 0 -- -- 79
2020-07-03 03:00:00 11.9 2 Oeste 7 Oeste 0 -- -- 77
2020-07-03 02:00:00 12.5 2 Noroeste 8 Norte 0 -- -- 76
2020-07-03 01:00:00 13.4 3 Noroeste 10 Norte 0 -- -- 73
2020-07-03 00:00:00 14.2 3 Norte 8 Sudeste 0 -- -- 71
2020-07-02 23:00:00 14.6 2 Oeste 9 Sudeste 0 -- -- 74
2020-07-02 22:00:00 16 2 Sur 13 Sudeste 0 -- -- 69
2020-07-02 21:00:00 18 3 Este 9 Nordeste 0 -- -- 67
2020-07-02 20:00:00 19 5 Sudeste 9 Este 0 -- -- 67
2020-07-02 19:00:00 21.1 3 Sur 12 Norte 0 -- -- 65
2020-07-02 18:00:00 22.6 4 Sur 19 Sur 0 -- -- 59
2020-07-02 17:00:00 22.7 6 Sur 23 Sudeste 0 -- -- 52
2020-07-02 16:00:00 23.2 7 Sur 20 Este 0 -- -- 52
2020-07-02 15:00:00 23.3 9 Sudeste 27 Sudoeste 0 -- -- 50
2020-07-02 14:00:00 22.2 10 Sur 23 Sur 0 -- -- 60
2020-07-02 13:00:00 21.2 4 Noroeste 17 Oeste 0 -- -- 69
2020-07-02 12:00:00 20.7 4 Este 18 Oeste 0 -- -- 68
2020-07-02 11:00:00 19.6 4 Sur 15 Sudoeste 0 -- -- 71
2020-07-02 10:00:00 17.9 4 Sudeste 12 Sur 0 -- -- 83
2020-07-02 09:00:00 15.9 0 Calma 0 Calma 0 -- -- 84
2020-07-02 08:00:00 14.3 0 Calma 0 Calma 0 -- -- 93
2020-07-02 07:00:00 13.4 0 Calma 0 Calma 0 -- -- 91
2020-07-02 06:00:00 13.7 0 Calma 0 Calma 0 -- -- 91
2020-07-02 05:00:00 13.7 0 Calma 0 Calma 0 -- -- 90
2020-07-02 04:00:00 14 0 Calma 0 Calma 0 -- -- 89
2020-07-02 03:00:00 14 0 Calma 0 Calma 0 -- -- 90
2020-07-02 02:00:00 14.3 0 Calma 0 Calma 0 -- -- 89
2020-07-02 01:00:00 15 0 Calma 0 Calma 0 -- -- 85
2020-07-02 00:00:00 16 0 Calma 4 Noroeste 0 -- -- 85
2020-07-01 23:00:00 17.3 2 Oeste 9 Sur 0 -- -- 83
2020-07-01 22:00:00 18.8 0 Calma 5 Sur 0 -- -- 78
2020-07-01 21:00:00 20.1 0 Calma 5 Este 0 -- -- 76
2020-07-01 20:00:00 20.7 2 Noroeste 4 Norte 0 -- -- 74
2020-07-01 19:00:00 22.1 2 Oeste 10 Sur 0 -- -- 65
2020-07-01 18:00:00 24.5 4 Sudoeste 17 Sudeste 0 -- -- 61
2020-07-01 17:00:00 24.3 5 Sur 18 Sudeste 0 -- -- 58
2020-07-01 16:00:00 25.6 5 Sudoeste 28 Sudeste 0 -- -- 56
2020-07-01 15:00:00 25.9 5 Sur 28 Sudeste 0 -- -- 48
2020-07-01 14:00:00 23.4 4 Noroeste 17 Sur 0 -- -- 74
2020-07-01 13:00:00 25.6 9 Sur 24 Sudeste 0 -- -- 53
2020-07-01 12:00:00 23.9 3 Nordeste 8 Noroeste 0 -- -- 65
2020-07-01 11:00:00 21.3 3 Sudeste 5 Sudeste 0 -- -- 76
2020-07-01 10:00:00 18.1 0 Calma 5 Este 0 -- -- 90
2020-07-01 09:00:00 15.3 0 Calma 3 Sudeste 0 -- -- 97
2020-07-01 08:00:00 14.3 0 Calma 3 Norte 0 -- -- 98
2020-07-01 07:00:00 13.5 0 Calma 3 Sudoeste 0 -- -- 96
2020-07-01 06:00:00 13.7 0 Calma 3 Sudoeste 0 -- -- 96
2020-07-01 05:00:00 14.1 0 Calma 3 Oeste 0 -- -- 96
2020-07-01 04:00:00 14.3 0 Calma 4 Sudoeste 0 -- -- 96
2020-07-01 03:00:00 14.5 0 Calma 5 Sudoeste 0 -- -- 96
2020-07-01 02:00:00 14.5 0 Calma 2 Oeste 0 -- -- 95
2020-07-01 01:00:00 14.8 0 Calma 3 Sur 0 -- -- 93
2020-07-01 00:00:00 15.3 3 Oeste 13 Oeste 7 -- -- 92
2020-06-30 23:00:00 17.1 8 Sudoeste 26 Noroeste 23 -- -- 83
2020-06-30 22:00:00 22.9 5 Noroeste 23 Sudoeste 0.6 -- -- 76
2020-06-30 21:00:00 23.8 8 Oeste 25 Oeste 0 -- -- 67
2020-06-30 20:00:00 24.4 5 Oeste 17 Sudoeste 0 -- -- 69
2020-06-30 19:00:00 24.6 0 Calma 12 Sudoeste 0 -- -- 72
2020-06-30 18:00:00 25.5 4 Sur 12 Sudoeste 0 -- -- 62
2020-06-30 17:00:00 24.7 4 Oeste 13 Este 0 -- -- 66
2020-06-30 16:00:00 25.9 5 Nordeste 15 Oeste 0 -- -- 55
2020-06-30 15:00:00 25.9 3 Noroeste 16 Este 0 -- -- 59
2020-06-30 14:00:00 26.5 5 Sudeste 16 Sudeste 0 -- -- 59
2020-06-30 13:00:00 25.6 3 Nordeste 21 Sudoeste 0 -- -- 62
2020-06-30 12:00:00 24.3 5 Sur 19 Este 0 -- -- 66
2020-06-30 11:00:00 22.9 8 Sudeste 17 Este 0 -- -- 68
2020-06-30 10:00:00 20.8 0 Calma 5 Este 0 -- -- 71
2020-06-30 09:00:00 17.7 3 Sudeste 5 Sur 0 -- -- 80
2020-06-30 08:00:00 15.5 0 Calma 4 Este 0 -- -- 91
2020-06-30 07:00:00 14.8 0 Calma 0 Calma 0 -- -- 91
2020-06-30 06:00:00 14.9 0 Calma 0 Calma 0 -- -- 91
2020-06-30 05:00:00 15.3 0 Calma 0 Calma 0 -- -- 89
2020-06-30 04:00:00 15.4 0 Calma 0 Calma 0 -- -- 91
2020-06-30 03:00:00 15.3 0 Calma 0 Calma 0 -- -- 91
2020-06-30 02:00:00 15.2 0 Calma 0 Calma 0 -- -- 90
2020-06-30 01:00:00 15.6 0 Calma 0 Calma 0 -- -- 88
2020-06-30 00:00:00 16.3 0 Calma 4 Sur 0 -- -- 86
2020-06-29 23:00:00 17.3 0 Calma 3 Sudoeste 0 -- -- 82
2020-06-29 22:00:00 18.6 0 Calma 4 Sur 0 -- -- 78
2020-06-29 21:00:00 20.6 0 Calma 10 Sur 0 -- -- 71
2020-06-29 20:00:00 22.2 4 Sudoeste 16 Sur 0 -- -- 58
2020-06-29 19:00:00 23.8 6 Sur 19 Sudeste 0 -- -- 50
2020-06-29 18:00:00 24.7 5 Sur 19 Sudeste 0 -- -- 51
2020-06-29 17:00:00 24.5 3 Sudoeste 18 Sudeste 0 -- -- 59
2020-06-29 16:00:00 24 7 Sur 19 Sur 0 -- -- 54
2020-06-29 15:00:00 23.8 4 Este 12 Este 0 -- -- 60
2020-06-29 14:00:00 23.4 4 Noroeste 25 Sur 0 -- -- 70
2020-06-29 13:00:00 23.2 5 Oeste 27 Oeste 0 -- -- 68
2020-06-29 12:00:00 21.3 13 Oeste 31 Sudoeste 0 -- -- 71
2020-06-29 11:00:00 20.2 5 Sudeste -- -- -- -- -- 77
2020-06-29 10:00:00 18.8 6 Sudeste 14 Sur 0 -- -- 78
2020-06-29 09:00:00 17.3 3 Sudeste 6 Este 0 -- -- 85
2020-06-29 08:00:00 15.7 0 Calma 4 Este 0 -- -- 93
2020-06-29 07:00:00 15 0 Calma 4 Noroeste 0 -- -- 93
2020-06-29 06:00:00 14.9 0 Calma 8 Oeste 0 -- -- 90
2020-06-29 05:00:00 15.4 2 Sudoeste 6 Sudoeste 0 -- -- 90
2020-06-29 04:00:00 15.5 3 Noroeste 7 Sur 0 -- -- 89
2020-06-29 03:00:00 15.5 0 Calma 4 Sudeste 0 -- -- 89
2020-06-29 02:00:00 15.7 0 Calma 4 Oeste 0 -- -- 88
2020-06-29 01:00:00 15.7 0 Calma 0 Calma 0 -- -- 88
2020-06-29 00:00:00 15.7 0 Calma 2 Noroeste 0 -- -- 87
2020-06-28 23:00:00 16.4 0 Calma 4 Sudoeste 0 -- -- 84
2020-06-28 22:00:00 17.4 0 Calma 4 Sur 0 -- -- 82
2020-06-28 21:00:00 18.9 0 Calma 4 Sudoeste 0 -- -- 78
2020-06-28 20:00:00 21 2 Sudoeste 15 Sudoeste 0 -- -- 70
2020-06-28 19:00:00 22.6 4 Oeste 16 Sudoeste 0 -- -- 64
2020-06-28 18:00:00 23.5 3 Sudoeste 14 Sur 0 -- -- 58
2020-06-28 17:00:00 23.2 4 Sudoeste 15 Sudoeste 0 -- -- 59
2020-06-28 16:00:00 23.3 3 Noroeste 17 Este 0 -- -- 67
2020-06-28 15:00:00 23.8 7 Sudeste 23 Sur 0 -- -- 56
2020-06-28 14:00:00 -- -- -- -- -- -- -- -- --
2020-06-28 13:00:00 -- -- -- -- -- -- -- -- --
2020-06-28 12:00:00 -- -- -- -- -- -- -- -- --
2020-06-28 11:00:00 -- -- -- -- -- -- -- -- --
2020-06-28 10:00:00 -- -- -- -- -- -- -- -- --
2020-06-28 09:00:00 -- -- -- -- -- -- -- -- --
2020-06-28 08:00:00 -- -- -- -- -- -- -- -- --
2020-06-28 07:00:00 -- -- -- -- -- -- -- -- --
2020-06-28 06:00:00 -- -- -- -- -- -- -- -- --
2020-06-28 05:00:00 -- -- -- -- -- -- -- -- --
2020-06-28 04:00:00 -- -- -- -- -- -- -- -- --
2020-06-28 03:00:00 14.6 0 Calma -- -- 0 -- -- 88
2020-06-28 02:00:00 14.6 0 Calma 0 Calma 0 -- -- 87
2020-06-28 01:00:00 15.1 0 Calma -- -- 0 -- -- 87
2020-06-28 00:00:00 16 0 Calma 3 Sudoeste 0 -- -- 84
2020-06-27 23:00:00 16.4 0 Calma 3 Sudoeste 0 -- -- 81
2020-06-27 22:00:00 17.1 0 Calma 4 Sudoeste 0 -- -- 79
2020-06-27 21:00:00 18.7 0 Calma 10 Sudoeste 0 -- -- 73
2020-06-27 20:00:00 20.1 3 Sudoeste 11 Sudoeste 0 -- -- 67
2020-06-27 19:00:00 21.2 2 Sudoeste 18 Sudeste 0 -- -- 62
2020-06-27 18:00:00 23.2 4 Sur 12 Este 0 -- -- 49
2020-06-27 17:00:00 24.4 3 Sudeste 15 Sudeste 0 -- -- 54
2020-06-27 16:00:00 22.2 2 Noroeste 9 Sudoeste 0 -- -- 61
2020-06-27 15:00:00 23.2 3 Noroeste 19 Este 0 -- -- 57
2020-06-27 14:00:00 23.2 3 Noroeste 14 Este 0 -- -- 50
2020-06-27 13:00:00 22.6 8 Sudeste 21 Sudeste 0 -- -- 50
2020-06-27 12:00:00 21.3 7 Sudeste 18 Sudeste 0 -- -- 56
2020-06-27 11:00:00 18.9 2 Sudeste 6 Sudeste 0 -- -- 76
2020-06-27 10:00:00 15.8 2 Este 5 Sudeste 0 -- -- 81
2020-06-27 09:00:00 12.8 0 Calma 6 Este 0 -- -- 95
2020-06-27 08:00:00 10.8 0 Calma -- -- 0 -- -- 98
2020-06-27 07:00:00 10.1 0 Calma 3 Oeste 0 -- -- 97
2020-06-27 06:00:00 10 0 Calma 4 Sudoeste 0 -- -- 97
2020-06-27 05:00:00 10.3 0 Calma 4 Oeste 0 -- -- 97
2020-06-27 04:00:00 10.8 0 Calma 4 Oeste 0 -- -- 96
2020-06-27 03:00:00 11.3 0 Calma 4 Oeste 0 -- -- 97
2020-06-27 02:00:00 11.3 0 Calma 4 Sur 0 -- -- 96
2020-06-27 01:00:00 12 2 Oeste 14 Sudoeste 0.4 -- -- 96
2020-06-27 00:00:00 11.8 0 Calma 6 Sudoeste 0 -- -- 97
2020-06-26 23:00:00 12 3 Noroeste 8 Norte 0 -- -- 96
2020-06-26 22:00:00 12.1 0 Calma 17 Oeste 0.2 -- -- 94
2020-06-26 21:00:00 12.4 3 Oeste 9 Sur 0 -- -- 96
2020-06-26 20:00:00 12.2 3 Oeste 18 Oeste 5.2 -- -- 93
2020-06-26 19:00:00 13.7 16 Sudeste -- -- -- -- -- 79
2020-06-26 18:00:00 19.6 0 Calma 5 Sudeste 0.2 -- -- 78
2020-06-26 17:00:00 20.5 2 Norte 26 Sudoeste 0.2 -- -- 66
2020-06-26 16:00:00 23.5 9 Oeste 33 Sur 0 -- -- 50
2020-06-26 15:00:00 24.7 3 Oeste 18 Este 0 -- -- 45
2020-06-26 14:00:00 24.1 6 Oeste 28 Sudeste 0 -- -- 47
2020-06-26 13:00:00 23.7 8 Sur 23 Sur 0 -- -- 41
2020-06-26 12:00:00 22 3 Sudoeste 14 Oeste 0 -- -- 56
2020-06-26 11:00:00 19.9 3 Sur 9 Sudeste 0 -- -- 72
2020-06-26 10:00:00 17 3 Este 9 Este 0 -- -- 87
2020-06-26 09:00:00 15.1 2 Nordeste 4 Este 0 -- -- 94
2020-06-26 08:00:00 13.3 0 Calma 6 Sudeste 0 -- -- 98
2020-06-26 07:00:00 12.4 0 Calma 6 Oeste 0 -- -- 97
2020-06-26 06:00:00 12.9 3 Oeste 5 Sudoeste 0 -- -- 96
2020-06-26 05:00:00 13.2 2 Oeste 5 Noroeste 0 -- -- 97
2020-06-26 04:00:00 13.3 2 Noroeste 5 Sur 0 -- -- 96
2020-06-26 03:00:00 13.9 0 Calma 4 Sur 0.8 -- -- 97
2020-06-26 02:00:00 14 0 Calma 3 Oeste 0 -- -- 96
2020-06-26 01:00:00 14.3 0 Calma 4 Oeste 0 -- -- 95
2020-06-26 00:00:00 14.7 2 Oeste 15 Oeste 1.4 -- -- 95
2020-06-25 23:00:00 15.4 0 Calma 17 Sur 3 -- -- 95
2020-06-25 22:00:00 14.5 2 Oeste 39 Sudeste 14.2 -- -- 95
2020-06-25 21:00:00 19.4 0 Calma 8 Oeste 0 -- -- 72
2020-06-25 20:00:00 20.6 2 Noroeste 13 Noroeste 0 -- -- 66
2020-06-25 19:00:00 23 2 Noroeste 12 Noroeste 0 -- -- 62
2020-06-25 18:00:00 24.4 3 Oeste 20 Sur 0 -- -- 60
2020-06-25 17:00:00 25.6 7 Sudeste 18 Sudeste 0 -- -- 46
2020-06-25 16:00:00 27.2 7 Sur 23 Sur 0 -- -- 40
2020-06-25 15:00:00 26.8 5 Sudeste 17 Sur 0 -- -- 41
2020-06-25 14:00:00 26.3 4 Sudeste 21 Sudoeste 0 -- -- 46
2020-06-25 13:00:00 24.7 2 Este 7 Sur 0 -- -- 52
2020-06-25 12:00:00 22.5 0 Calma 5 Sudeste 0 -- -- 58
2020-06-25 11:00:00 19.9 3 Este 6 Sur 0 -- -- 72
2020-06-25 10:00:00 17.3 2 Este 5 Este 0 -- -- 81
2020-06-25 09:00:00 13.9 0 Calma 5 Este 0 -- -- 94
2020-06-25 08:00:00 11.8 0 Calma -- -- 0 -- -- 98
2020-06-25 07:00:00 10.9 0 Calma -- -- 0 -- -- 97
2020-06-25 06:00:00 11 0 Calma -- -- 0 -- -- 96
2020-06-25 05:00:00 11.2 0 Calma -- -- 0 -- -- 96
2020-06-25 04:00:00 11.6 0 Calma -- -- 0 -- -- 95
2020-06-25 03:00:00 12.4 0 Calma 0 Calma 0 -- -- 95
2020-06-25 02:00:00 12.6 0 Calma 3 Oeste 0 -- -- 95
2020-06-25 01:00:00 12.9 0 Calma 4 Oeste 0 -- -- 95
2020-06-25 00:00:00 13.2 0 Calma 4 Oeste 0 -- -- 95
2020-06-24 23:00:00 13.6 0 Calma 4 Oeste 0 -- -- 95
2020-06-24 22:00:00 14 0 Calma 12 Sudoeste 1.4 -- -- 94
2020-06-24 21:00:00 14.2 0 Calma 4 Sur 0.6 -- -- 95
2020-06-24 20:00:00 14.6 0 Calma 9 Oeste 0.8 -- -- 94
2020-06-24 19:00:00 14.9 2 Oeste 7 Oeste 0.4 -- -- 94
2020-06-24 18:00:00 14.9 2 Oeste 6 Oeste 0.2 -- -- 94
2020-06-24 17:00:00 14.9 4 Noroeste 17 Sudoeste 0.2 -- -- 91
2020-06-24 16:00:00 13.7 4 Oeste 27 Oeste 14.8 -- -- 88
2020-06-24 15:00:00 18.6 6 Sudoeste 21 Sudoeste 2.8 -- -- 75
2020-06-24 14:00:00 26.3 4 Sur 23 Sudeste 0 -- -- 46
2020-06-24 13:00:00 26.9 8 Sudeste 24 Sur 0 -- -- 47
2020-06-24 12:00:00 25.3 3 Sudeste 5 Este 0 -- -- 50
2020-06-24 11:00:00 22 2 Sudeste 6 Sudeste 0 -- -- 55
2020-06-24 10:00:00 19.7 2 Sudeste 4 Este 0 -- -- 64
2020-06-24 09:00:00 15.8 2 Sudeste 5 Sudeste 0 -- -- 80
2020-06-24 08:00:00 12.8 0 Calma 4 Nordeste 0 -- -- 88
2020-06-24 07:00:00 11.7 0 Calma 3 Oeste -- -- -- 87
2020-06-24 06:00:00 11.8 0 Calma 3 Sudoeste -- -- -- 84
2020-06-24 05:00:00 12.2 0 Calma 3 Sudoeste -- -- -- 82
2020-06-24 04:00:00 12.7 0 Calma 4 Sur -- -- -- 79
2020-06-24 03:00:00 13.1 0 Calma -- -- -- -- -- 78
2020-06-24 02:00:00 13.7 0 Calma -- -- -- -- -- 73
2020-06-24 01:00:00 14.7 0 Calma -- -- -- -- -- 71
2020-06-24 00:00:00 15.7 0 Calma -- -- -- -- -- 67
2020-06-23 23:00:00 17.1 0 Calma 4 Oeste -- -- -- 63
2020-06-23 22:00:00 19.3 0 Calma 6 Norte -- -- -- 57
2020-06-23 21:00:00 22.9 4 Sudoeste 13 Oeste -- -- -- 42
2020-06-23 20:00:00 23 3 Sudoeste 13 Sudoeste -- -- -- 44
2020-06-23 19:00:00 24.9 3 Sudoeste 18 Sudeste -- -- -- 43
2020-06-23 18:00:00 26.9 5 Sudeste 20 Este -- -- -- 36
2020-06-23 17:00:00 27.1 10 Sudeste 25 Sudeste -- -- -- 33
2020-06-23 16:00:00 27 10 Sudeste 20 Sudeste -- -- -- 34
2020-06-23 15:00:00 -- 5 Sur -- -- -- -- -- --
2020-06-23 14:00:00 26.2 6 Sudeste -- -- -- -- -- 44
2020-06-23 13:00:00 25.5 4 Sudeste 16 Este -- -- -- 45
2020-06-23 12:00:00 23.9 7 Sudeste 19 Sur -- -- -- 46
2020-06-23 11:00:00 21.7 2 Este 5 Sudeste -- -- -- 55
2020-06-23 10:00:00 19 2 Sudeste 5 Sudeste -- -- -- 66
2020-06-23 09:00:00 14.9 0 Calma 4 Este -- -- -- 78
2020-06-23 08:00:00 12.1 0 Calma 2 Nordeste -- -- -- 92
2020-06-23 07:00:00 11.2 0 Calma -- -- -- -- -- 91
2020-06-23 06:00:00 11.5 0 Calma -- -- -- -- -- 89
2020-06-23 05:00:00 11.7 0 Calma -- -- -- -- -- 88
2020-06-23 04:00:00 12.2 0 Calma -- -- -- -- -- 87
2020-06-23 03:00:00 12.8 0 Calma 2 Norte -- -- -- 84
2020-06-23 02:00:00 13.5 0 Calma 3 Oeste -- -- -- 82
2020-06-23 01:00:00 14.3 0 Calma 4 Norte -- -- -- 80
2020-06-23 00:00:00 15.2 0 Calma 4 Noroeste -- -- -- 76
2020-06-22 23:00:00 16.4 0 Calma 4 Oeste -- -- -- 72
2020-06-22 22:00:00 17.9 0 Calma 6 Sudoeste -- -- -- 67
2020-06-22 21:00:00 19.7 0 Calma 6 Sur -- -- -- 62
2020-06-22 20:00:00 21.5 0 Calma 10 Norte -- -- -- 57
2020-06-22 19:00:00 24.4 4 Norte 18 Oeste -- -- -- 48
2020-06-22 18:00:00 25.6 4 Sur 19 Sudeste -- -- -- 42
2020-06-22 17:00:00 25.8 5 Sudeste 20 Sudeste -- -- -- 43
2020-06-22 16:00:00 25.5 6 Sudeste 25 Sur -- -- -- 43
2020-06-22 15:00:00 25.2 6 Sudeste 18 Este -- -- -- 45
2020-06-22 14:00:00 24.2 5 Sudeste 18 Sur -- -- -- 50
2020-06-22 13:00:00 22.9 5 Norte 20 Sudoeste -- -- -- 48
2020-06-22 12:00:00 22 5 Sur 20 Sudeste 0 -- -- 52
2020-06-22 11:00:00 21.3 2 Sudeste 5 Sur 0 -- -- 56
2020-06-22 10:00:00 17.9 2 Sudeste 5 Este 0 -- -- 62
2020-06-22 09:00:00 14.5 2 Sudeste 5 Este 0 -- -- 65
2020-06-22 08:00:00 11.9 0 Calma 6 Sur 0 -- -- 79
2020-06-22 07:00:00 10.7 0 Calma 3 Sur 0 -- -- 79
2020-06-22 06:00:00 11.4 0 Calma 4 Oeste 0 -- -- 79
2020-06-22 05:00:00 12.1 2 Noroeste 6 Noroeste 0 -- -- 76
2020-06-22 04:00:00 12.6 2 Oeste 8 Norte 0 -- -- 75
2020-06-22 03:00:00 13 2 Noroeste 11 Sudoeste 0 -- -- 75
2020-06-22 02:00:00 13.6 3 Noroeste 9 Noroeste 0 -- -- 72
2020-06-22 01:00:00 13.6 2 Oeste 8 Noroeste 0 -- -- 74
2020-06-22 00:00:00 14.4 0 Calma 8 Noroeste 0 -- -- 71
2020-06-21 23:00:00 15 0 Calma 12 Nordeste 0 -- -- 68
2020-06-21 22:00:00 17 5 Norte 16 Oeste 0 -- -- 58
2020-06-21 21:00:00 18.4 4 Norte 19 Noroeste 0 -- -- 55
2020-06-21 20:00:00 19.7 4 Norte 18 Norte 0 -- -- 57
2020-06-21 19:00:00 21.5 5 Sudeste 21 Noroeste 0 -- -- 52
2020-06-21 18:00:00 23.6 8 Noroeste 28 Noroeste 0 -- -- 45
2020-06-21 17:00:00 26 4 Norte 21 Nordeste 0 -- -- 39
2020-06-21 16:00:00 26.3 7 Noroeste 16 Norte 0 -- -- 37
2020-06-21 15:00:00 25.8 2 Noroeste 14 Sudeste 0 -- -- 37
2020-06-21 14:00:00 24.9 6 Sudeste 20 Sur 0 -- -- 44
2020-06-21 13:00:00 23.8 5 Sur 19 Sur 0 -- -- 51
2020-06-21 12:00:00 22.3 5 Sur 19 Sur 0 -- -- 50
2020-06-21 11:00:00 20.7 5 Sudeste 19 Sur 0 -- -- 49
2020-06-21 10:00:00 17.8 2 Nordeste 6 Este 0 -- -- 61
2020-06-21 09:00:00 14.2 2 Sudeste 6 Este 0 -- -- 76
2020-06-21 08:00:00 11.1 0 Calma 4 Oeste 0 -- -- 85
2020-06-21 07:00:00 9.8 0 Calma 3 Noroeste 0 -- -- 83
2020-06-21 06:00:00 9.8 0 Calma 4 Oeste 0 -- -- 81
2020-06-21 05:00:00 10 0 Calma 4 Sudoeste 0 -- -- 79
2020-06-21 04:00:00 10.3 0 Calma 4 Sudoeste 0 -- -- 78
2020-06-21 03:00:00 10.5 0 Calma 4 Oeste 0 -- -- 74
2020-06-21 02:00:00 11.1 0 Calma 4 Norte 0 -- -- 73
2020-06-21 01:00:00 12 0 Calma 3 Oeste 0 -- -- 74
2020-06-21 00:00:00 13.2 0 Calma 4 Oeste 0 -- -- 72
2020-06-20 23:00:00 14.6 0 Calma 4 Oeste 0 -- -- 73
2020-06-20 22:00:00 16.2 0 Calma 4 Oeste 0 -- -- 72
2020-06-20 21:00:00 18.2 0 Calma 19 Noroeste 0 -- -- 66
2020-06-20 20:00:00 19.2 0 Calma 12 Sudeste 0 -- -- 60
2020-06-20 19:00:00 22.4 3 Sur 15 Sudeste 0 -- -- 51
2020-06-20 18:00:00 23.3 3 Oeste 21 Sur 0 -- -- 43
2020-06-20 17:00:00 23.1 6 Sudeste 24 Sudeste 0 -- -- 46
2020-06-20 16:00:00 22.9 13 Sur 26 Sudeste 0 -- -- 46
2020-06-20 15:00:00 22.4 10 Sudeste 25 Sudeste 0 -- -- 49
2020-06-20 14:00:00 21.3 9 Sudeste 26 Este 0 -- -- 56
2020-06-20 13:00:00 20.2 9 Sudeste 24 Sudeste 0 -- -- 66
2020-06-20 12:00:00 20.3 6 Sudeste 20 Sudeste 0 -- -- 67
2020-06-20 11:00:00 18.7 3 Nordeste 14 Sudeste 0 -- -- 68
2020-06-20 10:00:00 16.5 3 Sudeste 5 Este 0 -- -- 69
2020-06-20 09:00:00 12.4 0 Calma 6 Este 2 -- -- 80
2020-06-20 08:00:00 10.1 3 Este 4 Este 0 -- -- 90
2020-06-20 07:00:00 8.6 0 Calma 3 Oeste 0 -- -- 90
2020-06-20 06:00:00 8.9 0 Calma 3 Sudoeste 0 -- -- 88
2020-06-20 05:00:00 9.1 0 Calma 3 Oeste 0 -- -- 88
2020-06-20 04:00:00 9.6 0 Calma 3 Sur 0 -- -- 88
2020-06-20 03:00:00 10.3 0 Calma -- -- 0 -- -- 85
2020-06-20 02:00:00 11.3 0 Calma -- -- 0 -- -- 84
2020-06-20 01:00:00 11.8 0 Calma 3 Sudoeste 0 -- -- 83
2020-06-20 00:00:00 12.5 0 Calma 4 Sudoeste 0 -- -- 83
2020-06-19 23:00:00 12.9 0 Calma 5 Noroeste 0 -- -- 81
2020-06-19 22:00:00 14.1 0 Calma 4 Noroeste 0 -- -- 76
2020-06-19 21:00:00 15.4 2 Oeste 4 Sudoeste 0 -- -- 71
2020-06-19 20:00:00 17.5 3 Oeste 13 Oeste 0 -- -- 63
2020-06-19 19:00:00 19.1 4 Sudoeste 16 Sur 0 -- -- 53
2020-06-19 18:00:00 19.6 4 Sudeste 16 Este 0 -- -- 53
2020-06-19 17:00:00 20.5 5 Sudeste 18 Sudeste 0 -- -- 50
2020-06-19 16:00:00 20.3 7 Sudeste 26 Sur 0 -- -- 53
2020-06-19 15:00:00 18.9 4 Sudeste 21 Este 0 -- -- 59
2020-06-19 14:00:00 18.3 8 Sudeste 20 Sur 0 -- -- 64
2020-06-19 13:00:00 17.5 3 Sudoeste 22 Sudeste 0 -- -- 70
2020-06-19 12:00:00 17 4 Este 15 Sudoeste 0.2 -- -- 69
2020-06-19 11:00:00 15.4 5 Sudeste 14 Sur 0 -- -- 67
2020-06-19 10:00:00 13.2 3 Sudeste 6 Este 0 -- -- 77
2020-06-19 09:00:00 10.9 0 Calma 4 Noroeste 0 -- -- 84
2020-06-19 08:00:00 9.7 0 Calma 4 Sudeste 0 -- -- 87
2020-06-19 07:00:00 8.8 0 Calma 4 Sur 0 -- -- 89
2020-06-19 06:00:00 8.9 0 Calma 3 Sur 0 -- -- 87
2020-06-19 05:00:00 9.3 0 Calma 3 Sudoeste 0 -- -- 87
2020-06-19 04:00:00 9.7 0 Calma 3 Sudoeste 0 -- -- 86
2020-06-19 03:00:00 10.3 0 Calma 3 Oeste 0 -- -- 85
2020-06-19 02:00:00 10.9 0 Calma 4 Sudoeste 0 -- -- 84
2020-06-19 01:00:00 11.5 0 Calma 2 Este 0 -- -- 82
2020-06-19 00:00:00 12.1 0 Calma 3 Sudoeste 0 -- -- 80
2020-06-18 23:00:00 12.6 0 Calma 4 Sudoeste 0 -- -- 78
2020-06-18 22:00:00 13.4 2 Sudoeste 4 Sur 0 -- -- 75
2020-06-18 21:00:00 14.5 0 Calma 5 Sudeste 0 -- -- 71
2020-06-18 20:00:00 15.7 0 Calma 8 Norte 0 -- -- 69
2020-06-18 19:00:00 16.7 3 Sur 12 Sudoeste 0 -- -- 59
2020-06-18 18:00:00 16.9 3 Sur 18 Sudeste 0 -- -- 62
2020-06-18 17:00:00 17 6 Sur 18 Sudeste 0 -- -- 51
2020-06-18 16:00:00 16.4 9 Sur 22 Sur 0 -- -- 55
2020-06-18 15:00:00 15.8 4 Este 12 Nordeste 0 -- -- 63
2020-06-18 14:00:00 14.8 3 Noroeste 11 Sudeste 0.2 -- -- 70
2020-06-18 13:00:00 13.7 3 Norte 9 Norte 0 -- -- 73
2020-06-18 12:00:00 12.8 3 Este 5 Nordeste 0 -- -- 75
2020-06-18 11:00:00 11.4 0 Calma 6 Noroeste 0 -- -- 76
2020-06-18 10:00:00 10.6 0 Calma 7 Este 0 -- -- 89
2020-06-18 09:00:00 9.5 2 Noroeste 6 Noroeste 0 -- -- 89
2020-06-18 08:00:00 8.5 0 Calma 4 Sudoeste 0 -- -- 90
2020-06-18 07:00:00 7.9 0 Calma 3 Noroeste 0 -- -- 88
2020-06-18 06:00:00 7.6 0 Calma 3 Sudoeste 0 -- -- 87
2020-06-18 05:00:00 8 0 Calma 3 Oeste 0 -- -- 85
2020-06-18 04:00:00 8 0 Calma 3 Noroeste 0 -- -- 86
2020-06-18 03:00:00 7.9 0 Calma 3 Noroeste 0 -- -- 85
2020-06-18 02:00:00 7.7 0 Calma 4 Sudoeste 0 -- -- 85
2020-06-18 01:00:00 8.3 2 Sur 5 Sur 0 -- -- 83
2020-06-18 00:00:00 9 0 Calma 4 Sudoeste 0 -- -- 80
2020-06-17 23:00:00 10.2 2 Oeste 6 Oeste 0 -- -- 76
2020-06-17 22:00:00 11.1 3 Sudoeste 7 Sudoeste 0 -- -- 74
2020-06-17 21:00:00 13 3 Sur 11 Noroeste 0.2 -- -- 70
2020-06-17 20:00:00 14.6 2 Oeste 9 Noroeste 0 -- -- 65
2020-06-17 19:00:00 16.2 5 Sudeste 21 Sur 0 -- -- 50
2020-06-17 18:00:00 16.7 9 Sur 23 Sur 0 -- -- 45
2020-06-17 17:00:00 16.8 10 Sudeste 25 Sudeste 0 -- -- 49
2020-06-17 16:00:00 16.6 9 Sur 28 Sudeste 0 -- -- 49
2020-06-17 15:00:00 16.6 10 Sur 24 Sur 0 -- -- 54
2020-06-17 14:00:00 16.3 5 Sudeste 19 Sur 0 -- -- 59
2020-06-17 13:00:00 14.5 6 Sudeste 17 Sur 0 -- -- 65
2020-06-17 12:00:00 13.2 6 Sudeste 18 Sudeste 0 -- -- 70
2020-06-17 11:00:00 11.6 3 Sudeste 17 Sur 0 -- -- 79
2020-06-17 10:00:00 10.8 4 Sudeste 11 Sudeste 0 -- -- 80
2020-06-17 09:00:00 8.8 2 Este 10 Sudeste 0 -- -- 89
2020-06-17 08:00:00 7.4 5 Sudeste 13 Sudeste 0 -- -- 92
2020-06-17 07:00:00 6.1 0 Calma 3 Noroeste 0 -- -- 94
2020-06-17 06:00:00 5.8 0 Calma 5 Sur 0.2 -- -- 92
2020-06-17 05:00:00 6.3 0 Calma -- -- 0 -- -- 91
2020-06-17 04:00:00 7.2 0 Calma 5 Noroeste 0 -- -- 89
2020-06-17 03:00:00 8.1 0 Calma 3 Oeste 0 -- -- 89
2020-06-17 02:00:00 8.8 0 Calma 5 Sudoeste 0 -- -- 89
2020-06-17 01:00:00 8.8 0 Calma 4 Este 0 -- -- 89
2020-06-17 00:00:00 8.9 0 Calma 3 Oeste 0 -- -- 89
2020-06-16 23:00:00 9.2 0 Calma 3 Oeste 0 -- -- 87
2020-06-16 22:00:00 10.1 0 Calma 9 Noroeste 0 -- -- 85
2020-06-16 21:00:00 11.7 3 Oeste 13 Oeste 0 -- -- 77
2020-06-16 20:00:00 13.1 2 Noroeste 12 Nordeste 0 -- -- 75
2020-06-16 19:00:00 13.6 0 Calma 4 Noroeste 0 -- -- 79
2020-06-16 18:00:00 13.5 0 Calma 5 Norte 0 -- -- 84
2020-06-16 17:00:00 12.8 3 Norte 9 Sur 0.2 -- -- 79
2020-06-16 16:00:00 11.9 3 Sudeste 24 Sur 0 -- -- 82
2020-06-16 15:00:00 14.4 10 Sur 21 Sur 0 -- -- 74
2020-06-16 14:00:00 13.9 7 Noroeste 27 Sudeste 0 -- -- 75
2020-06-16 13:00:00 13.8 4 Norte 17 Oeste 0 -- -- 76
2020-06-16 12:00:00 12.9 4 Sudeste 9 Este 0 -- -- 82
2020-06-16 11:00:00 12.3 0 Calma 5 Este 0 -- -- 84
2020-06-16 10:00:00 11.4 0 Calma 5 Sur 0 -- -- 90
2020-06-16 09:00:00 11.1 0 Calma 4 Sudeste 0 -- -- 91
2020-06-16 08:00:00 10.6 2 Sur 4 Este 0 -- -- 93
2020-06-16 07:00:00 10.2 2 Norte 11 Sudeste 0.2 -- -- 93
2020-06-16 06:00:00 10.4 0 Calma 3 Sur 0 -- -- 91
2020-06-16 05:00:00 10.7 0 Calma 3 Sudoeste 0 -- -- 89
2020-06-16 04:00:00 10.8 0 Calma -- -- 0 -- -- 87
2020-06-16 03:00:00 10.8 0 Calma 6 Sur 0 -- -- 84
2020-06-16 02:00:00 11.2 0 Calma 6 Sur 0 -- -- 83
2020-06-16 01:00:00 11.6 0 Calma 6 Sudoeste 0 -- -- 83
2020-06-16 00:00:00 11.8 0 Calma 4 Sudoeste 0 -- -- 81
2020-06-15 23:00:00 12.3 0 Calma 6 Sudoeste 0 -- -- 80
2020-06-15 22:00:00 12.9 3 Sur 6 Sur 0 -- -- 75
2020-06-15 21:00:00 15 0 Calma 7 Sur 0.2 -- -- 71
2020-06-15 20:00:00 16.4 0 Calma 5 Norte 0 -- -- 66
2020-06-15 19:00:00 17.1 2 Oeste 8 Sur 0 -- -- 67
2020-06-15 18:00:00 18.8 4 Sudeste 14 Sudoeste 0 -- -- 49
2020-06-15 17:00:00 18.8 5 Sudeste 22 Sur 0 -- -- 50
2020-06-15 16:00:00 17.8 5 Sudeste 24 Sur 0 -- -- 52
2020-06-15 15:00:00 17.8 5 Sudeste 23 Este 0 -- -- 51
2020-06-15 14:00:00 17.6 8 Sudeste 30 Sur 0.2 -- -- 53
2020-06-15 13:00:00 16.6 8 Sur 21 Sur 0 -- -- 57
2020-06-15 12:00:00 15.5 3 Sudeste 6 Este 0 -- -- 65
2020-06-15 11:00:00 14.3 2 Sudeste 6 Este 0 -- -- 75
2020-06-15 10:00:00 12.6 2 Sudeste 5 Este 0 -- -- 79
2020-06-15 09:00:00 10.8 0 Calma 3 Sudoeste 0 -- -- 86
2020-06-15 08:00:00 10 0 Calma 3 Noroeste 0.2 -- -- 91
2020-06-15 07:00:00 9 0 Calma 3 Noroeste 0 -- -- 93
2020-06-15 06:00:00 8.7 0 Calma 3 Sudoeste 0 -- -- 93
2020-06-15 05:00:00 8.6 0 Calma 3 Sudoeste 0 -- -- 92
2020-06-15 04:00:00 8.5 0 Calma 3 Noroeste 0 -- -- 91
2020-06-15 03:00:00 9.3 0 Calma 3 Sudeste 0 -- -- 88
2020-06-15 02:00:00 10.4 0 Calma 4 Oeste 0 -- -- 87
2020-06-15 01:00:00 11 0 Calma 4 Sudoeste 0.2 -- -- 87
2020-06-15 00:00:00 11.5 2 Sudoeste 5 Sudoeste 0 -- -- 85
2020-06-14 23:00:00 12 0 Calma 4 Oeste 0 -- -- 86
2020-06-14 22:00:00 13 0 Calma 4 Sur 0 -- -- 85
2020-06-14 21:00:00 13.9 0 Calma 2 Oeste 0.2 -- -- 84
2020-06-14 20:00:00 14.5 0 Calma 4 Sudeste 0 -- -- 80
2020-06-14 19:00:00 15.3 0 Calma 5 Sudeste 0 -- -- 77
2020-06-14 18:00:00 14.4 0 Calma 6 Oeste 0 -- -- 80
2020-06-14 17:00:00 14.6 3 Oeste 8 Noroeste 0.2 -- -- 72
2020-06-14 16:00:00 15 3 Oeste 13 Nordeste 0 -- -- 67
2020-06-14 15:00:00 16.4 9 Sur 19 Sur 0 -- -- 56
2020-06-14 14:00:00 15.1 5 Sur 14 Sudeste 0 -- -- 65
2020-06-14 13:00:00 14.7 4 Sudeste 15 Sudoeste 0.2 -- -- 63
2020-06-14 12:00:00 13.7 3 Sudeste 9 Sur 0 -- -- 67
2020-06-14 11:00:00 11.8 0 Calma 4 Este 0 -- -- 80
2020-06-14 10:00:00 10.8 0 Calma 3 Nordeste 0.2 -- -- 75
2020-06-14 09:00:00 9.4 0 Calma -- -- 0 -- -- 84
2020-06-14 08:00:00 8.4 0 Calma -- -- 0 -- -- 92
2020-06-14 07:00:00 7.6 0 Calma -- -- 0 -- -- 93
2020-06-14 06:00:00 7.3 0 Calma 2 Sudoeste 0.2 -- -- 94
2020-06-14 05:00:00 6.8 0 Calma 3 Oeste 0 -- -- 94
2020-06-14 04:00:00 6.9 0 Calma 3 Sudoeste 0 -- -- 91
2020-06-14 03:00:00 7.3 0 Calma 3 Oeste 0 -- -- 92
2020-06-14 02:00:00 7.5 0 Calma 4 Noroeste 0.2 -- -- 91
2020-06-14 01:00:00 7.4 0 Calma 4 Oeste 0 -- -- 91
2020-06-14 00:00:00 7.8 0 Calma 3 Oeste 0 -- -- 89
2020-06-13 23:00:00 8.8 0 Calma 4 Sudoeste 0.2 -- -- 86
2020-06-13 22:00:00 10.2 0 Calma 4 Sudoeste 0 -- -- 83
2020-06-13 21:00:00 12.5 2 Oeste 5 Noroeste 0.2 -- -- 81
2020-06-13 20:00:00 13.8 0 Calma 6 Norte 0 -- -- 78
2020-06-13 19:00:00 14.3 0 Calma 5 Sur 0.2 -- -- 77
2020-06-13 18:00:00 14.6 3 Noroeste 15 Noroeste 0 -- -- 70
2020-06-13 17:00:00 15.4 2 Noroeste 9 Noroeste 0.2 -- -- 68
2020-06-13 16:00:00 15.3 3 Sudeste 7 Este 0.2 -- -- 61
2020-06-13 15:00:00 14.8 2 Sur 12 Este 0.2 -- -- 64
2020-06-13 14:00:00 15.1 4 Sudeste 13 Sur 0.2 -- -- 64
2020-06-13 13:00:00 15.3 4 Sudeste 13 Sur 0.2 -- -- 72
2020-06-13 12:00:00 13 5 Sudeste 15 Sur 0 -- -- 75
2020-06-13 11:00:00 11.6 3 Oeste 12 Sur 0.2 -- -- 84
2020-06-13 10:00:00 11.2 3 Sudeste 6 Este 0.2 -- -- 85
2020-06-13 09:00:00 9.2 3 Sur 6 Sur 0 -- -- 91
2020-06-13 08:00:00 8.5 0 Calma 3 Oeste 0.2 -- -- 97
2020-06-13 07:00:00 7.9 0 Calma 4 Sudoeste 0 -- -- 97
2020-06-13 06:00:00 7.7 0 Calma 4 Sudeste 0.2 -- -- 97
2020-06-13 05:00:00 7.7 0 Calma 3 Oeste 0.2 -- -- 96
2020-06-13 04:00:00 7.8 0 Calma 8 Nordeste 0 -- -- 95
2020-06-13 03:00:00 8.1 4 Sudoeste 20 Sur 0.2 -- -- 90
2020-06-13 02:00:00 7.5 0 Calma 4 Sur 0 -- -- 97
2020-06-13 01:00:00 7.3 2 Oeste 8 Sudoeste 0.2 -- -- 96
2020-06-13 00:00:00 7.3 2 Sudoeste 4 Oeste 0.2 -- -- 93
2020-06-12 23:00:00 8.1 3 Sudoeste 7 Sudoeste 0 -- -- 93
2020-06-12 22:00:00 8.7 6 Sudeste 13 Sudeste 0.2 -- -- 92
2020-06-12 21:00:00 9.3 3 Noroeste 15 Sur 0.2 -- -- 88
2020-06-12 20:00:00 11.3 3 Oeste 17 Oeste 0.2 -- -- 72
2020-06-12 19:00:00 12.2 8 Oeste 24 Oeste 0 -- -- 61
2020-06-12 18:00:00 12.4 4 Este 15 Este 0.2 -- -- 60
2020-06-12 17:00:00 12.2 4 Sudeste 24 Este 0.2 -- -- 59
2020-06-12 16:00:00 13.6 6 Este 26 Sudeste 0.2 -- -- 56
2020-06-12 15:00:00 11.8 4 Nordeste 18 Este 0.2 -- -- 62
2020-06-12 14:00:00 12.7 6 Norte 24 Oeste 0.4 -- -- 66
2020-06-12 13:00:00 11.9 5 Nordeste 18 Sur 0.2 -- -- 68
2020-06-12 12:00:00 12 10 Este 24 Sudeste 0.2 -- -- 63
2020-06-12 11:00:00 11.3 6 Nordeste 22 Este 0.4 -- -- 65
2020-06-12 10:00:00 9.5 5 Este 24 Sudeste 0.2 -- -- 73
2020-06-12 09:00:00 8.8 5 Norte 12 Noroeste 0.2 -- -- 84
2020-06-12 08:00:00 8.8 5 Norte 12 Sudoeste 0.2 -- -- 80
2020-06-12 07:00:00 8.6 3 Nordeste 21 Sudoeste 0.4 -- -- 85
2020-06-12 06:00:00 8.6 3 Sudoeste 24 Oeste 0.2 -- -- 87
2020-06-12 05:00:00 8.5 6 Sur 32 Sudoeste 0.4 -- -- 85
2020-06-12 04:00:00 8.8 12 Sudoeste 27 Sur 0.4 -- -- 89
2020-06-12 03:00:00 9.5 11 Sudoeste 28 Sudoeste 0.4 -- -- 90
2020-06-12 02:00:00 10 8 Sudoeste 32 Sudoeste 0.4 -- -- 89
2020-06-12 01:00:00 10.5 10 Sur 23 Sur 0.4 -- -- 88
2020-06-12 00:00:00 11.2 3 Sudoeste 15 Sudeste 0.4 -- -- 91